Time;durP1;ratioP1;P1;durP2;ratioP2;P2;SDS_P1;SDS_P2;PMS_P1;PMS_P2;Temp;Humidity;BMP_temperature;BMP_pressure;BME280_temperature;BME280_humidity;BME280_pressure;Samples;Min_cycle;Max_cycle;Signal;HPM_P1;HPM_P2
2022/01/23 00:02:17;;;;;;;27.58;14.55;;;;;;;6.01;100.00;101923.00;5049894;28;20029;-65
2022/01/23 00:04:43;;;;;;;27.20;15.07;;;;;;;6.00;100.00;101929.13;5050649;28;20138;-65
2022/01/23 00:07:12;;;;;;;28.67;14.65;;;;;;;5.99;100.00;101917.69;5037204;28;20105;-65
2022/01/23 00:09:38;;;;;;;27.25;13.55;;;;;;;6.02;100.00;101920.38;5030274;28;20048;-65
2022/01/23 00:12:09;;;;;;;26.92;14.05;;;;;;;5.91;100.00;101911.41;5030045;28;20033;-64
2022/01/23 00:17:22;;;;;;;27.13;13.70;;;;;;;6.02;100.00;101927.41;5029264;28;20151;-65
2022/01/23 00:19:56;;;;;;;25.30;14.02;;;;;;;6.04;100.00;101920.38;5030138;28;20049;-64
2022/01/23 00:22:30;;;;;;;27.40;13.50;;;;;;;6.08;100.00;101917.81;5029698;28;20029;-64
2022/01/23 00:30:28;;;;;;;;;;;;;;;6.09;100.00;101905.50;5029551;28;20052;-64
2022/01/23 00:33:04;;;;;;;33.15;15.18;;;;;;;6.10;100.00;101909.91;5031053;28;19917;-65
2022/01/23 00:35:31;;;;;;;26.38;13.50;;;;;;;6.05;100.00;101906.31;5049908;28;20041;-64
2022/01/23 00:37:58;;;;;;;29.80;14.13;;;;;;;6.10;100.00;101907.28;5049995;28;20025;-65
2022/01/23 00:40:25;;;;;;;34.88;16.58;;;;;;;6.08;100.00;101903.75;5048514;28;20377;-65
2022/01/23 00:42:53;;;;;;;26.88;15.18;;;;;;;6.08;100.00;101898.47;5048656;28;20089;-65
2022/01/23 00:45:41;;;;;;;31.77;14.43;;;;;;;6.08;100.00;101898.47;5046833;28;20029;-65
2022/01/23 00:48:08;;;;;;;27.35;13.93;;;;;;;6.02;100.00;101893.06;5045125;28;21120;-65
2022/01/23 00:50:36;;;;;;;28.42;15.55;;;;;;;5.98;100.00;101891.25;5029075;28;20099;-65
2022/01/23 00:53:04;;;;;;;30.92;15.20;;;;;;;6.00;100.00;101894.78;5031991;28;20033;-65
2022/01/23 00:55:30;;;;;;;31.45;14.95;;;;;;;6.01;100.00;101901.84;5031332;28;20104;-66
2022/01/23 00:57:55;;;;;;;30.00;14.15;;;;;;;6.03;100.00;101905.41;5032201;28;20465;-64
2022/01/23 01:00:21;;;;;;;30.33;15.48;;;;;;;6.04;100.00;101908.09;5027999;28;20028;-65
2022/01/23 01:02:47;;;;;;;27.48;15.15;;;;;;;6.05;100.00;101903.66;5029206;28;20038;-65
2022/01/23 01:05:12;;;;;;;29.83;14.68;;;;;;;6.05;100.00;101904.56;5049379;28;20024;-65
2022/01/23 01:07:38;;;;;;;32.55;14.23;;;;;;;6.02;100.00;101898.34;5031987;28;20111;-65
2022/01/23 01:10:10;;;;;;;29.90;15.00;;;;;;;6.01;100.00;101902.72;5031247;28;20025;-65
2022/01/23 01:12:44;;;;;;;30.25;14.88;;;;;;;5.98;100.00;101901.81;5031185;28;20063;-65
2022/01/23 01:31:28;;;;;;;;;;;;;;;5.88;100.00;101894.59;5029487;28;20044;-65
2022/01/23 01:34:04;;;;;;;;;;;;;;;5.88;100.00;101894.59;5038965;28;19916;-64
2022/01/23 01:36:46;;;;;;;25.20;13.35;;;;;;;5.87;100.00;101893.72;5048727;28;19924;-64
2022/01/23 01:39:13;;;;;;;33.80;15.82;;;;;;;5.85;100.00;101890.16;5048102;28;20033;-65
2022/01/23 01:41:40;;;;;;;28.45;13.38;;;;;;;5.81;100.00;101882.13;5047628;28;20108;-65
2022/01/23 01:44:05;;;;;;;27.65;15.00;;;;;;;5.77;100.00;101867.06;5048374;28;20117;-65
2022/01/23 01:46:31;;;;;;;35.42;15.13;;;;;;;5.95;100.00;101891.19;5049352;28;20527;-65
2022/01/23 01:48:57;;;;;;;33.03;15.18;;;;;;;6.07;100.00;101887.00;5048207;28;20128;-65
2022/01/23 01:51:23;;;;;;;30.17;14.38;;;;;;;6.06;100.00;101900.19;5048846;28;20146;-65
2022/01/23 01:53:52;;;;;;;29.02;14.43;;;;;;;5.91;100.00;101878.81;5048429;28;20522;-65
2022/01/23 01:56:18;;;;;;;30.33;15.18;;;;;;;5.85;100.00;101884.00;5048820;28;20032;-65
2022/01/23 02:09:49;;;;;;;30.75;16.65;;;;;;;5.93;100.00;101871.81;5028927;28;20039;-66
2022/01/23 02:17:58;;;;;;;25.77;14.40;;;;;;;5.96;100.00;101890.34;5028163;28;20084;-65
2022/01/23 02:53:35;;;;;;;28.90;13.75;;;;;;;5.98;100.00;101865.69;5033357;28;20021;-65
2022/01/23 02:56:02;;;;;;;27.85;14.05;;;;;;;5.95;100.00;101852.47;5031592;28;20474;-65
2022/01/23 02:58:54;;;;;;;25.73;12.20;;;;;;;5.91;100.00;101852.41;5032046;28;20470;-65
2022/01/23 03:01:20;;;;;;;24.15;12.50;;;;;;;5.92;100.00;101859.44;5030875;28;20032;-65
2022/01/23 03:03:49;;;;;;;27.35;13.35;;;;;;;5.90;100.00;101845.31;5031976;28;20370;-65
2022/01/23 03:06:49;;;;;;;27.70;14.02;;;;;;;5.91;100.00;101848.00;5036357;28;20420;-65
2022/01/23 03:09:59;;;;;;;;;;;;;;;5.85;100.00;101847.03;5034537;28;20037;-65
2022/01/23 03:12:10;;;;;;;27.05;13.02;;;;;;;5.85;100.00;101847.91;5027100;28;19999;-65
2022/01/23 03:14:45;;;;;;;29.80;14.35;;;;;;;5.96;100.00;101834.88;5045220;28;20028;-65
2022/01/23 03:30:54;;;;;;;23.40;13.20;;;;;;;5.85;100.00;101855.81;5029906;28;20033;-65
2022/01/23 03:33:20;;;;;;;30.15;13.80;;;;;;;5.85;100.00;101870.78;5034873;28;20060;-65
2022/01/23 03:35:46;;;;;;;25.77;14.40;;;;;;;5.89;100.00;101867.31;5049588;28;20641;-65
2022/01/23 03:38:12;;;;;;;26.42;12.35;;;;;;;5.83;100.00;101867.22;5049537;28;20028;-66
2022/01/23 03:40:37;;;;;;;24.13;12.35;;;;;;;5.85;100.00;101868.16;5049862;28;20072;-65
2022/01/23 03:43:12;;;;;;;29.17;13.05;;;;;;;5.90;100.00;101872.63;5049701;28;20116;-65
2022/01/23 03:50:42;;;;;;;28.80;13.65;;;;;;;6.06;100.00;101869.34;5048806;28;20036;-65
2022/01/23 03:53:07;;;;;;;24.35;12.15;;;;;;;5.99;100.00;101866.59;5050087;28;20039;-65
2022/01/23 03:55:33;;;;;;;23.35;13.98;;;;;;;5.89;100.00;101864.69;5050071;28;20103;-65
2022/01/23 03:57:58;;;;;;;22.27;12.80;;;;;;;5.94;100.00;101878.84;5049647;28;20033;-65
2022/01/23 04:00:24;;;;;;;24.00;12.65;;;;;;;5.92;100.00;101876.19;5049355;28;20041;-65
2022/01/23 04:02:50;;;;;;;23.27;11.55;;;;;;;5.92;100.00;101880.56;5049190;28;20031;-65
2022/01/23 04:05:16;;;;;;;22.27;12.45;;;;;;;5.89;100.00;101885.81;5049566;28;20392;-65
2022/01/23 04:07:41;;;;;;;25.10;13.55;;;;;;;5.92;100.00;101881.47;5049899;28;20025;-65
2022/01/23 04:10:09;;;;;;;22.85;13.15;;;;;;;5.95;100.00;101877.97;5049396;28;20021;-65
2022/01/23 04:12:48;;;;;;;23.30;13.13;;;;;;;5.92;100.00;101885.84;5049036;28;20060;-65
2022/01/23 04:15:31;;;;;;;24.33;11.85;;;;;;;5.90;100.00;101879.66;5050039;28;20445;-65
2022/01/23 04:21:14;;;;;;;27.42;12.05;;;;;;;5.83;100.00;101859.31;5030320;28;20038;-65
2022/01/23 05:04:20;;;;;;;28.75;12.82;;;;;;;5.79;100.00;101860.97;5041387;28;20037;-65
2022/01/23 05:06:49;;;;;;;38.10;13.32;;;;;;;5.83;100.00;101864.59;5029486;28;20056;-65
2022/01/23 05:09:15;;;;;;;36.85;13.73;;;;;;;5.74;100.00;101849.47;5029089;28;20040;-65
2022/01/23 05:11:50;;;;;;;22.10;11.48;;;;;;;5.85;100.00;101860.22;5034263;28;20029;-65
2022/01/23 05:14:21;;;;;;;33.35;13.70;;;;;;;5.86;100.00;101870.81;5029134;28;20370;-65
2022/01/23 05:16:46;;;;;;;28.20;13.13;;;;;;;5.89;100.00;101876.13;5029085;28;20061;-65
2022/01/23 05:19:12;;;;;;;22.17;11.77;;;;;;;5.88;100.00;101869.06;5028752;28;20029;-65
2022/01/23 05:24:09;;;;;;;28.52;11.70;;;;;;;5.85;100.00;101876.06;5049683;28;20107;-65
2022/01/23 05:26:42;;;;;;;21.08;10.77;;;;;;;5.83;100.00;101881.31;5048685;28;20029;-65
2022/01/23 05:29:07;;;;;;;23.35;12.82;;;;;;;5.82;100.00;101876.91;5049157;28;20029;-65
2022/01/23 05:31:33;;;;;;;27.95;11.73;;;;;;;5.83;100.00;101873.38;5049125;28;20547;-65
2022/01/23 05:33:58;;;;;;;23.08;12.32;;;;;;;5.82;100.00;101862.75;5038860;28;20472;-64
2022/01/23 05:36:23;;;;;;;27.65;13.25;;;;;;;5.80;100.00;101869.81;5029100;28;20029;-66
2022/01/23 05:38:49;;;;;;;24.42;13.07;;;;;;;5.80;100.00;101859.25;5028824;28;20116;-65
2022/01/23 05:41:14;;;;;;;24.25;11.68;;;;;;;5.80;100.00;101869.81;5028317;28;20120;-65
2022/01/23 05:43:40;;;;;;;27.40;12.68;;;;;;;5.74;100.00;101875.84;5029475;28;20025;-65
2022/01/23 05:46:05;;;;;;;30.00;12.18;;;;;;;5.72;100.00;101884.59;5028780;28;20025;-65
2022/01/23 05:48:30;;;;;;;23.95;11.65;;;;;;;5.69;100.00;101881.91;5028738;28;20083;-65
2022/01/23 05:50:56;;;;;;;24.02;12.38;;;;;;;5.75;100.00;101877.63;5028954;28;20025;-65
2022/01/23 05:53:21;;;;;;;22.02;11.45;;;;;;;5.75;100.00;101876.75;5028671;28;20029;-65
2022/01/23 05:55:47;;;;;;;21.73;11.75;;;;;;;5.74;100.00;101880.25;5028925;28;20029;-65
2022/01/23 05:58:12;;;;;;;26.15;12.25;;;;;;;5.75;100.00;101885.53;5028585;28;20032;-65
2022/01/23 06:00:37;;;;;;;23.25;12.02;;;;;;;5.77;100.00;101889.09;5028483;28;20074;-64
2022/01/23 06:03:03;;;;;;;24.00;11.30;;;;;;;5.77;100.00;101880.28;5028718;28;20025;-64
2022/01/23 06:05:28;;;;;;;22.45;11.63;;;;;;;5.75;100.00;101874.97;5028326;28;20032;-64
2022/01/23 06:07:54;;;;;;;23.00;11.18;;;;;;;5.72;100.00;101887.22;5028815;28;20030;-64
2022/01/23 06:10:25;;;;;;;21.45;11.52;;;;;;;5.70;100.00;101881.94;5028361;28;20385;-65
2022/01/23 06:12:50;;;;;;;45.53;14.27;;;;;;;5.70;100.00;101883.72;5029200;28;20416;-64
2022/01/23 06:15:16;;;;;;;22.20;10.82;;;;;;;5.69;100.00;101889.81;5028496;28;20160;-66
2022/01/23 06:17:43;;;;;;;24.52;11.07;;;;;;;5.65;100.00;101890.66;5027909;28;20037;-65
2022/01/23 06:20:11;;;;;;;22.25;10.98;;;;;;;5.66;100.00;101882.75;5028808;28;20533;-65
2022/01/23 06:22:37;;;;;;;24.13;13.32;;;;;;;5.70;100.00;101883.72;5028150;28;20024;-65
2022/01/23 06:25:05;;;;;;;25.63;12.90;;;;;;;5.71;100.00;101886.38;5028618;28;20033;-65
2022/01/23 06:27:31;;;;;;;19.45;9.57;;;;;;;5.64;100.00;101883.59;5029014;28;20025;-65
2022/01/23 06:29:57;;;;;;;20.40;11.13;;;;;;;5.71;100.00;101896.03;5027887;28;20022;-65
2022/01/23 06:32:24;;;;;;;25.85;11.65;;;;;;;5.70;100.00;101894.25;5028903;28;20096;-65
2022/01/23 06:34:50;;;;;;;22.23;11.85;;;;;;;5.69;100.00;101896.00;5045403;28;20028;-65
2022/01/23 06:37:15;;;;;;;25.25;11.40;;;;;;;5.68;100.00;101909.19;5048216;28;20041;-65
2022/01/23 06:39:40;;;;;;;20.20;10.85;;;;;;;5.65;100.00;101907.34;5048085;28;20421;-65
2022/01/23 06:42:06;;;;;;;25.27;11.40;;;;;;;5.59;100.00;101901.09;5048425;28;20027;-65
2022/01/23 06:44:32;;;;;;;23.70;11.60;;;;;;;5.63;100.00;101913.50;5048223;28;20112;-65
2022/01/23 06:46:57;;;;;;;20.08;11.65;;;;;;;5.61;100.00;101909.94;5034466;28;20363;-65
2022/01/23 06:49:23;;;;;;;28.17;12.15;;;;;;;5.61;100.00;101915.22;5027486;28;20025;-65
2022/01/23 06:51:49;;;;;;;32.00;13.07;;;;;;;5.58;100.00;101921.34;5028658;28;20496;-65
2022/01/23 06:54:15;;;;;;;26.20;13.20;;;;;;;5.60;100.00;101918.72;5030910;28;20044;-65
2022/01/23 06:56:41;;;;;;;23.58;11.05;;;;;;;5.66;100.00;101924.09;5028829;28;20041;-65
2022/01/23 06:59:06;;;;;;;23.45;12.68;;;;;;;5.66;100.00;101925.00;5030199;28;20013;-65
2022/01/23 07:01:32;;;;;;;37.63;17.55;;;;;;;5.65;100.00;101924.97;5030003;28;20430;-65
2022/01/23 07:03:58;;;;;;;33.95;17.92;;;;;;;5.63;100.00;101924.94;5048405;28;20048;-65
2022/01/23 07:06:23;;;;;;;36.15;17.67;;;;;;;5.61;100.00;101926.66;5046993;28;20032;-65
2022/01/23 07:08:49;;;;;;;32.28;17.63;;;;;;;5.64;100.00;101934.63;5038640;28;20021;-65
2022/01/23 07:11:15;;;;;;;35.55;17.83;;;;;;;5.60;100.00;101929.28;5050740;28;20036;-65
2022/01/23 07:13:40;;;;;;;35.28;18.67;;;;;;;5.67;100.00;101939.97;5052033;28;20029;-64
2022/01/23 07:16:06;;;;;;;28.67;15.95;;;;;;;5.69;100.00;101940.00;5042865;28;20024;-65
2022/01/23 07:18:32;;;;;;;31.42;16.42;;;;;;;5.67;100.00;101952.28;5031035;28;20561;-65
2022/01/23 07:20:57;;;;;;;34.47;17.58;;;;;;;5.69;100.00;101950.53;5031192;28;20029;-65
2022/01/23 07:23:23;;;;;;;23.08;13.07;;;;;;;5.68;100.00;101951.41;5034056;28;20163;-65
2022/01/23 07:25:50;;;;;;;22.58;11.68;;;;;;;5.69;100.00;101942.63;5031770;28;20021;-65
2022/01/23 07:28:19;;;;;;;22.77;11.10;;;;;;;5.68;100.00;101951.41;5031644;28;20036;-65
2022/01/23 07:33:13;;;;;;;25.55;11.73;;;;;;;5.63;100.00;101948.72;5035100;28;20100;-65
2022/01/23 07:35:38;;;;;;;25.40;13.95;;;;;;;5.62;100.00;101952.19;5051535;28;20025;-65
2022/01/23 07:38:04;;;;;;;25.77;13.55;;;;;;;5.65;100.00;101948.72;5051391;28;20039;-65
2022/01/23 07:40:29;;;;;;;25.02;11.68;;;;;;;5.64;100.00;101962.78;5050805;28;20028;-65
2022/01/23 07:42:55;;;;;;;26.98;12.65;;;;;;;5.62;100.00;101959.25;5051328;28;20056;-65
2022/01/23 07:45:20;;;;;;;22.30;13.82;;;;;;;5.62;100.00;101953.97;5050712;28;20025;-65
2022/01/23 07:47:46;;;;;;;26.30;12.48;;;;;;;5.59;100.00;101956.50;5051274;28;20032;-65
2022/01/23 07:50:12;;;;;;;28.13;14.57;;;;;;;5.68;100.00;101965.53;5050901;28;20039;-65
2022/01/23 07:52:39;;;;;;;26.67;13.65;;;;;;;5.69;100.00;101969.03;5051504;28;20047;-65
2022/01/23 07:55:07;;;;;;;27.70;14.57;;;;;;;5.71;100.00;101967.31;5051037;28;20487;-65
2022/01/23 07:57:33;;;;;;;27.33;13.82;;;;;;;5.70;100.00;101973.47;5050349;28;20032;-65
2022/01/23 07:59:59;;;;;;;28.35;13.23;;;;;;;5.74;100.00;101970.00;5050142;28;20032;-65
2022/01/23 08:02:24;;;;;;;29.35;14.77;;;;;;;5.72;100.00;101961.16;5050896;28;20052;-65
2022/01/23 08:04:50;;;;;;;46.40;22.92;;;;;;;5.76;100.00;101969.19;5050855;28;20029;-64
2022/01/23 08:07:30;;;;;;;36.60;18.55;;;;;;;5.76;100.00;101978.84;5050856;28;20527;-65
2022/01/23 08:10:02;;;;;;;32.85;18.30;;;;;;;5.78;100.00;101967.47;5050406;28;20037;-65
2022/01/23 08:12:30;;;;;;;31.67;16.00;;;;;;;5.80;100.00;101973.63;5050260;28;20904;-65
2022/01/23 08:14:57;;;;;;;41.40;18.15;;;;;;;5.80;100.00;101976.28;5050918;28;20032;-65
2022/01/23 08:17:24;;;;;;;28.52;16.75;;;;;;;5.77;100.00;101976.22;5047102;28;20064;-65
2022/01/23 08:19:54;;;;;;;26.20;14.55;;;;;;;5.87;100.00;101987.88;5030395;28;20436;-65
2022/01/23 08:22:21;;;;;;;32.92;15.82;;;;;;;5.86;100.00;101978.19;5028940;28;20033;-65
2022/01/23 08:24:47;;;;;;;28.92;14.48;;;;;;;5.88;100.00;101994.94;5030275;28;20029;-65
2022/01/23 08:27:13;;;;;;;26.35;14.98;;;;;;;5.92;100.00;102002.94;5030519;28;20108;-65
2022/01/23 08:29:38;;;;;;;21.92;12.60;;;;;;;5.91;100.00;101995.91;5029402;28;20055;-65
2022/01/23 08:32:04;;;;;;;30.48;13.77;;;;;;;5.95;100.00;102002.09;5029633;28;20040;-65
2022/01/23 08:34:29;;;;;;;27.35;12.75;;;;;;;5.96;100.00;101994.22;5044485;28;20039;-65
2022/01/23 08:36:55;;;;;;;30.48;12.75;;;;;;;6.00;100.00;101992.50;5050059;28;20029;-65
2022/01/23 08:39:24;;;;;;;27.65;14.13;;;;;;;6.05;100.00;101996.13;5049329;28;20096;-65
2022/01/23 08:41:49;;;;;;;24.25;13.07;;;;;;;6.07;100.00;101987.38;5050095;28;20025;-65
2022/01/23 08:44:23;;;;;;;22.75;11.95;;;;;;;6.10;100.00;101994.44;5049636;28;20393;-65
2022/01/23 08:46:49;;;;;;;32.58;12.60;;;;;;;6.11;100.00;101990.97;5049855;28;20430;-65
2022/01/23 08:49:19;;;;;;;22.65;11.15;;;;;;;6.12;100.00;101990.97;5049734;28;20075;-65
2022/01/23 08:51:46;;;;;;;24.58;11.90;;;;;;;6.16;100.00;101992.78;5034083;28;20056;-65
2022/01/23 08:54:15;;;;;;;24.95;12.63;;;;;;;6.11;100.00;101989.19;5032253;28;20029;-65
2022/01/23 08:56:41;;;;;;;24.90;12.70;;;;;;;6.16;100.00;101994.56;5041661;28;20029;-65
2022/01/23 08:59:07;;;;;;;25.50;11.90;;;;;;;6.18;100.00;101987.53;5046471;28;20044;-67
2022/01/23 09:01:55;;;;;;;26.58;13.02;;;;;;;6.20;100.00;101983.16;5049880;28;20041;-66
2022/01/23 09:04:20;;;;;;;23.92;13.85;;;;;;;6.29;100.00;101978.03;5034879;28;20428;-65
2022/01/23 09:06:47;;;;;;;26.48;11.98;;;;;;;6.30;100.00;101987.75;5029327;28;20037;-65
2022/01/23 09:09:37;;;;;;;26.67;11.57;;;;;;;6.32;100.00;101984.28;5029485;28;20028;-65
2022/01/23 09:12:07;;;;;;;42.08;14.82;;;;;;;6.34;100.00;101986.94;5029605;28;20061;-66
2022/01/23 09:14:33;;;;;;;23.20;11.10;;;;;;;6.35;100.00;101983.41;5032207;28;20341;-65
2022/01/23 09:17:00;;;;;;;25.40;13.10;;;;;;;6.36;100.00;101986.09;5045500;28;20081;-65
2022/01/23 09:19:26;;;;;;;21.65;11.10;;;;;;;6.39;100.00;101986.13;5041165;28;20040;-65
2022/01/23 09:21:53;;;;;;;28.00;12.75;;;;;;;6.44;100.00;101988.88;5029479;28;20025;-65
2022/01/23 09:24:21;;;;;;;23.15;11.45;;;;;;;6.46;100.00;101988.00;5029473;28;20105;-65
2022/01/23 09:26:52;;;;;;;23.40;13.60;;;;;;;6.55;100.00;101984.63;5029644;28;20025;-64
2022/01/23 09:29:29;;;;;;;27.85;13.10;;;;;;;6.59;100.00;101986.41;5029123;28;20029;-65
2022/01/23 09:31:55;;;;;;;26.23;12.98;;;;;;;6.65;100.00;101989.19;5031210;28;20057;-65
2022/01/23 09:34:28;;;;;;;28.48;13.45;;;;;;;6.68;100.00;101983.94;5035762;28;20489;-65
2022/01/23 09:36:55;;;;;;;24.17;13.75;;;;;;;6.74;100.00;101986.66;5029953;28;20418;-65
2022/01/23 09:39:22;;;;;;;24.75;12.98;;;;;;;6.74;100.00;101977.84;5028499;28;20040;-64
2022/01/23 09:42:07;;;;;;;27.90;13.57;;;;;;;6.82;100.00;101982.34;5028783;28;20029;-63
2022/01/23 09:44:51;;;;;;;35.70;13.20;;;;;;;6.89;100.00;101973.66;5029059;28;20037;-65
2022/01/23 09:47:19;;;;;;;23.67;13.07;;;;;;;6.90;100.00;101971.91;5030172;28;20037;-66
2022/01/23 09:49:52;;;;;;;25.00;12.63;;;;;;;6.91;100.00;101984.25;5030511;28;20442;-66
2022/01/23 09:52:19;;;;;;;22.98;11.25;;;;;;;6.87;100.00;101964.78;5028653;28;20021;-64
2022/01/23 09:54:55;;;;;;;26.17;13.00;;;;;;;6.94;100.00;101974.59;5029682;28;20037;-64
2022/01/23 09:57:24;;;;;;;27.42;12.40;;;;;;;6.99;100.00;101974.66;5028880;28;20033;-64
2022/01/23 09:59:53;;;;;;;25.73;12.25;;;;;;;7.02;100.00;101967.63;5028519;28;20032;-64
2022/01/23 10:02:19;;;;;;;30.08;13.68;;;;;;;7.05;100.00;101974.75;5028783;28;20022;-64
2022/01/23 10:04:44;;;;;;;26.63;15.10;;;;;;;7.06;100.00;101971.22;5028534;28;20504;-64
2022/01/23 10:07:10;;;;;;;26.95;15.05;;;;;;;7.09;100.00;101971.25;5028923;28;20036;-64
2022/01/23 10:09:36;;;;;;;28.75;14.52;;;;;;;7.15;100.00;101974.00;5028926;28;20396;-64
2022/01/23 10:12:02;;;;;;;29.73;14.38;;;;;;;7.22;100.00;101967.88;5028750;28;20496;-64
2022/01/23 10:14:27;;;;;;;31.45;14.80;;;;;;;7.28;100.00;101971.50;5028097;28;20017;-64
2022/01/23 10:16:53;;;;;;;29.25;14.63;;;;;;;7.25;100.00;101970.59;5028432;28;20069;-64
2022/01/23 10:19:18;;;;;;;28.65;14.02;;;;;;;7.33;100.00;101966.28;5029633;28;20085;-67
2022/01/23 10:21:46;;;;;;;25.08;14.18;;;;;;;7.37;100.00;101968.97;5029818;28;20038;-65
2022/01/23 10:24:13;;;;;;;28.80;12.82;;;;;;;7.42;100.00;101967.25;5028986;28;20051;-65
2022/01/23 10:26:56;;;;;;;26.30;11.90;;;;;;;7.46;100.00;101966.41;5029607;28;20040;-65
2022/01/23 10:29:32;;;;;;;21.85;11.70;;;;;;;7.49;100.00;101962.91;5028652;28;20025;-66
2022/01/23 10:32:21;;;;;;;22.63;11.98;;;;;;;7.53;100.00;101970.91;5031756;28;20460;-64
2022/01/23 10:34:50;;;;;;;23.55;11.45;;;;;;;7.54;100.00;101963.88;5031822;28;20021;-63
2022/01/23 10:37:31;;;;;;;23.23;12.05;;;;;;;7.56;100.00;101959.47;5027894;28;20088;-63
2022/01/23 10:39:59;;;;;;;21.38;12.18;;;;;;;7.66;100.00;101962.22;5028460;28;20533;-64
2022/01/23 10:48:26;;;;;;;22.90;11.93;;;;;;;7.83;100.00;101963.28;5031698;28;20099;-63
2022/01/23 10:51:20;;;;;;;24.27;11.77;;;;;;;7.93;100.00;101962.50;5031927;28;20025;-64
2022/01/23 10:53:57;;;;;;;23.70;11.93;;;;;;;8.00;99.70;101964.34;5036366;28;20025;-64
2022/01/23 10:56:24;;;;;;;27.65;12.63;;;;;;;8.07;100.00;101953.78;5048682;28;20033;-64
2022/01/23 10:59:02;;;;;;;22.45;11.95;;;;;;;8.09;99.35;101952.03;5051600;28;20035;-64
2022/01/23 11:01:28;;;;;;;25.05;11.48;;;;;;;8.09;98.97;101952.03;5051931;28;20369;-64
2022/01/23 11:04:05;;;;;;;29.17;13.45;;;;;;;8.25;98.63;101952.19;5051660;28;20020;-64
2022/01/23 11:06:31;;;;;;;24.10;11.75;;;;;;;8.26;97.16;101953.97;5040038;28;20112;-65
2022/01/23 11:09:09;;;;;;;26.05;12.27;;;;;;;8.30;96.83;101946.94;5031734;28;20109;-64
2022/01/23 11:11:47;;;;;;;22.08;11.25;;;;;;;8.36;96.91;101941.66;5034078;28;20029;-64
2022/01/23 11:17:23;;;;;;;21.25;10.75;;;;;;;8.37;95.45;101927.53;5043982;28;20110;-64
2022/01/23 11:19:57;;;;;;;24.45;11.65;;;;;;;8.52;95.25;101930.25;5031122;28;20025;-64
2022/01/23 11:22:34;;;;;;;25.55;11.40;;;;;;;8.65;94.24;101930.34;5032156;28;20069;-64
2022/01/23 11:25:03;;;;;;;25.45;13.18;;;;;;;8.63;93.63;101920.63;5031596;28;20056;-64
2022/01/23 11:27:37;;;;;;;23.98;12.10;;;;;;;8.66;93.63;101920.63;5034250;28;20045;-65
2022/01/23 11:30:05;;;;;;;26.30;12.05;;;;;;;8.81;93.20;101931.34;5031383;28;20497;-64
2022/01/23 11:32:42;;;;;;;24.73;12.57;;;;;;;8.89;92.80;101924.28;5032218;28;20029;-65
2022/01/23 11:35:14;;;;;;;23.95;11.90;;;;;;;8.84;91.44;101920.72;5051960;28;20028;-65
2022/01/23 11:37:47;;;;;;;21.05;11.00;;;;;;;8.94;91.79;101922.56;5045398;28;20029;-66
2022/01/23 11:53:59;;;;;;;24.30;11.93;;;;;;;9.00;89.00;101923.47;5031723;28;19913;-64
2022/01/23 11:56:25;;;;;;;24.98;11.93;;;;;;;9.08;88.94;101910.22;5030884;28;20103;-64
2022/01/23 11:59:18;;;;;;;21.55;11.23;;;;;;;9.15;88.80;101922.63;5030811;28;20025;-64
2022/01/23 12:01:45;;;;;;;24.25;12.05;;;;;;;9.22;88.47;101913.81;5021136;28;20037;-64
2022/01/23 12:04:21;;;;;;;24.65;11.80;;;;;;;9.22;88.79;101908.50;5042871;28;20029;-64
2022/01/23 12:07:12;;;;;;;23.77;11.88;;;;;;;9.24;89.18;101907.59;5051071;28;20025;-65
2022/01/23 12:09:43;;;;;;;26.27;13.52;;;;;;;9.08;88.38;101904.91;5050794;28;20036;-65
2022/01/23 12:12:35;;;;;;;24.33;11.82;;;;;;;9.14;88.06;101904.94;5050805;28;20448;-64
2022/01/23 12:18:21;;;;;;;21.98;10.40;;;;;;;9.34;88.90;101896.13;5040960;28;20056;-64
2022/01/23 12:20:50;;;;;;;23.80;10.75;;;;;;;9.33;88.60;101882.84;5030495;28;20477;-64
2022/01/23 12:23:17;;;;;;;25.92;11.32;;;;;;;9.32;88.16;101878.44;5030124;28;20030;-65
2022/01/23 12:25:51;;;;;;;22.48;10.90;;;;;;;9.38;89.04;101867.81;5030842;28;20108;-65
2022/01/23 12:28:28;;;;;;;20.70;11.05;;;;;;;9.31;88.14;101866.03;5030532;28;20052;-65
2022/01/23 12:31:13;;;;;;;23.35;11.02;;;;;;;9.27;88.98;101872.22;5030460;28;20025;-65
2022/01/23 12:33:39;;;;;;;19.73;10.82;;;;;;;9.29;88.61;101860.72;5019634;28;20448;-65
2022/01/23 12:36:07;;;;;;;23.27;12.52;;;;;;;9.36;88.77;101860.75;5030359;28;20109;-65
2022/01/23 12:38:39;;;;;;;25.45;11.80;;;;;;;9.47;88.42;101865.19;5030112;28;20508;-65
2022/01/23 12:41:28;;;;;;;23.92;11.63;;;;;;;9.49;87.93;101857.22;5030172;28;20102;-64
2022/01/23 12:44:22;;;;;;;24.00;11.05;;;;;;;9.51;87.70;101850.13;5030029;28;20025;-65
2022/01/23 12:47:14;;;;;;;24.67;10.98;;;;;;;9.38;88.24;101849.22;5025380;28;20040;-65
2022/01/23 12:49:51;;;;;;;19.25;10.57;;;;;;;9.35;87.27;101859.84;5029596;28;20056;-65
2022/01/23 12:52:19;;;;;;;20.98;9.75;;;;;;;9.34;87.54;101851.00;5047510;28;20115;-64
2022/01/23 12:54:47;;;;;;;22.73;11.35;;;;;;;9.33;87.95;101848.34;5049686;28;20104;-64
2022/01/23 12:57:20;;;;;;;21.88;11.95;;;;;;;9.25;88.27;101850.09;5049310;28;20812;-64
2022/01/23 12:59:57;;;;;;;25.13;11.13;;;;;;;9.28;89.02;101843.03;5049367;28;20040;-64
2022/01/23 13:02:27;;;;;;;20.70;10.95;;;;;;;9.37;88.85;101839.50;5038587;28;20022;-65
2022/01/23 13:04:55;;;;;;;25.48;12.35;;;;;;;9.30;89.03;101838.59;5047615;28;20029;-64
2022/01/23 13:07:42;;;;;;;23.45;12.23;;;;;;;9.25;89.80;101832.41;5037807;28;20028;-64
2022/01/23 13:13:36;;;;;;;25.90;11.40;;;;;;;9.30;88.86;101832.41;5029506;28;20061;-64
2022/01/23 13:18:13;;;;;;;22.27;10.70;;;;;;;9.23;89.57;101825.31;5029394;28;20122;-64
2022/01/23 13:35:10;;;;;;;28.10;12.38;;;;;;;9.20;90.59;101815.59;5017263;28;20037;-63
2022/01/23 13:37:49;;;;;;;24.45;12.65;;;;;;;9.21;90.57;101821.75;5029302;28;20029;-63
2022/01/23 13:40:23;;;;;;;21.98;11.65;;;;;;;9.10;90.89;101819.09;5028920;28;20104;-63
2022/01/23 13:59:52;;;;;;;26.92;12.30;;;;;;;8.68;92.57;101771.22;5028758;28;20512;-64
2022/01/23 14:02:20;;;;;;;32.78;13.07;;;;;;;8.92;92.59;101812.84;5028660;28;20135;-64
2022/01/23 14:04:53;;;;;;;25.80;12.40;;;;;;;8.95;92.98;101811.09;5028565;28;20340;-64
2022/01/23 14:07:28;;;;;;;22.73;11.70;;;;;;;8.97;93.36;101812.00;5028943;28;20017;-64
2022/01/23 14:09:57;;;;;;;22.20;11.63;;;;;;;8.95;92.93;101812.84;5028323;28;20501;-64
2022/01/23 14:12:24;;;;;;;24.90;11.25;;;;;;;8.93;93.13;101814.59;5028463;28;20505;-64
2022/01/23 14:15:05;;;;;;;25.23;12.57;;;;;;;8.98;92.72;101812.84;5028420;28;20036;-64
2022/01/23 14:17:35;;;;;;;21.45;11.23;;;;;;;8.84;93.03;101815.50;5028420;28;20052;-65
2022/01/23 14:20:06;;;;;;;23.88;10.98;;;;;;;8.76;92.84;101803.09;5031674;28;20384;-64
2022/01/23 14:22:34;;;;;;;26.17;11.88;;;;;;;8.74;92.82;101804.84;5032616;28;20653;-64
2022/01/23 14:25:10;;;;;;;27.40;12.38;;;;;;;8.74;93.61;101802.19;5032928;28;20033;-64
2022/01/23 14:27:38;;;;;;;27.83;13.48;;;;;;;8.63;94.01;101799.47;5032730;28;20044;-64
2022/01/23 14:30:07;;;;;;;22.40;11.88;;;;;;;8.70;94.59;101801.28;5031676;28;20029;-64
2022/01/23 14:32:44;;;;;;;23.83;11.68;;;;;;;8.68;94.45;101799.53;5031687;28;20059;-64
2022/01/23 14:35:17;;;;;;;27.45;12.70;;;;;;;8.68;94.62;101794.22;5033102;28;20114;-64
2022/01/23 14:37:46;;;;;;;22.35;10.40;;;;;;;8.68;94.53;101796.88;5032708;28;20037;-64
2022/01/23 14:40:22;;;;;;;23.52;11.32;;;;;;;8.66;94.39;101798.63;5034312;28;20100;-64
2022/01/23 14:43:08;;;;;;;24.25;12.05;;;;;;;8.67;94.43;101800.38;5033802;28;20036;-64
2022/01/23 14:45:40;;;;;;;23.83;12.48;;;;;;;8.61;94.70;101798.63;5031873;28;20036;-64
2022/01/23 14:48:07;;;;;;;25.20;12.15;;;;;;;8.52;94.52;101798.56;5031839;28;20437;-64
2022/01/23 14:50:36;;;;;;;25.10;12.05;;;;;;;8.54;95.02;101806.53;5032125;28;20025;-64